sensor_id;sensor_type;location;lat;lon;timestamp;P1;durP1;ratioP1;P2;durP2;ratioP2
35777;SDS011;21899;42.662;23.316;2023-09-19T00:01:06;7.13;;;4.90;;
35777;SDS011;21899;42.662;23.316;2023-09-19T00:03:36;10.48;;;5.30;;
35777;SDS011;21899;42.662;23.316;2023-09-19T00:06:02;8.23;;;5.32;;
35777;SDS011;21899;42.662;23.316;2023-09-19T00:08:29;9.68;;;5.43;;
35777;SDS011;21899;42.662;23.316;2023-09-19T00:10:55;6.85;;;5.05;;
35777;SDS011;21899;42.662;23.316;2023-09-19T00:13:23;12.40;;;5.65;;
35777;SDS011;21899;42.662;23.316;2023-09-19T00:15:49;8.20;;;5.90;;
35777;SDS011;21899;42.662;23.316;2023-09-19T00:18:16;8.07;;;5.63;;
35777;SDS011;21899;42.662;23.316;2023-09-19T00:20:42;8.00;;;5.82;;
35777;SDS011;21899;42.662;23.316;2023-09-19T00:23:08;8.80;;;5.82;;
35777;SDS011;21899;42.662;23.316;2023-09-19T00:25:34;10.48;;;5.78;;
35777;SDS011;21899;42.662;23.316;2023-09-19T00:28:02;6.85;;;4.90;;
35777;SDS011;21899;42.662;23.316;2023-09-19T00:30:32;8.30;;;5.18;;
35777;SDS011;21899;42.662;23.316;2023-09-19T00:33:03;8.25;;;5.25;;
35777;SDS011;21899;42.662;23.316;2023-09-19T00:35:32;10.50;;;5.05;;
35777;SDS011;21899;42.662;23.316;2023-09-19T00:37:58;10.77;;;4.95;;
35777;SDS011;21899;42.662;23.316;2023-09-19T00:40:23;12.07;;;5.10;;
35777;SDS011;21899;42.662;23.316;2023-09-19T00:42:49;7.60;;;5.10;;
35777;SDS011;21899;42.662;23.316;2023-09-19T00:45:16;7.65;;;4.35;;
35777;SDS011;21899;42.662;23.316;2023-09-19T00:47:49;8.50;;;5.07;;
35777;SDS011;21899;42.662;23.316;2023-09-19T00:50:20;10.43;;;4.93;;
35777;SDS011;21899;42.662;23.316;2023-09-19T00:52:48;7.55;;;4.88;;
35777;SDS011;21899;42.662;23.316;2023-09-19T00:55:15;10.68;;;5.43;;
35777;SDS011;21899;42.662;23.316;2023-09-19T00:57:44;9.85;;;4.88;;
35777;SDS011;21899;42.662;23.316;2023-09-19T01:00:10;11.65;;;5.20;;
35777;SDS011;21899;42.662;23.316;2023-09-19T01:02:40;6.80;;;4.80;;
35777;SDS011;21899;42.662;23.316;2023-09-19T01:05:08;12.00;;;5.43;;
35777;SDS011;21899;42.662;23.316;2023-09-19T01:07:33;10.65;;;5.43;;
35777;SDS011;21899;42.662;23.316;2023-09-19T01:10:00;9.98;;;5.43;;
35777;SDS011;21899;42.662;23.316;2023-09-19T01:15:49;9.45;;;5.18;;
35777;SDS011;21899;42.662;23.316;2023-09-19T01:21:04;9.77;;;5.28;;
35777;SDS011;21899;42.662;23.316;2023-09-19T01:32:01;8.57;;;5.70;;
35777;SDS011;21899;42.662;23.316;2023-09-19T01:34:48;10.82;;;5.93;;
35777;SDS011;21899;42.662;23.316;2023-09-19T01:37:21;9.85;;;6.10;;
35777;SDS011;21899;42.662;23.316;2023-09-19T01:39:55;9.10;;;5.70;;
35777;SDS011;21899;42.662;23.316;2023-09-19T01:42:54;9.07;;;5.60;;
35777;SDS011;21899;42.662;23.316;2023-09-19T01:45:42;12.35;;;6.38;;
35777;SDS011;21899;42.662;23.316;2023-09-19T01:48:20;13.05;;;7.22;;
35777;SDS011;21899;42.662;23.316;2023-09-19T01:51:08;10.80;;;7.55;;
35777;SDS011;21899;42.662;23.316;2023-09-19T01:56:28;11.38;;;7.60;;
35777;SDS011;21899;42.662;23.316;2023-09-19T01:58:59;11.27;;;7.35;;
35777;SDS011;21899;42.662;23.316;2023-09-19T02:01:29;9.48;;;6.22;;
35777;SDS011;21899;42.662;23.316;2023-09-19T02:03:56;9.98;;;7.05;;
35777;SDS011;21899;42.662;23.316;2023-09-19T02:06:22;13.07;;;8.13;;
35777;SDS011;21899;42.662;23.316;2023-09-19T02:08:50;9.23;;;6.68;;
35777;SDS011;21899;42.662;23.316;2023-09-19T02:11:15;9.48;;;6.90;;
35777;SDS011;21899;42.662;23.316;2023-09-19T02:13:41;9.50;;;5.75;;
35777;SDS011;21899;42.662;23.316;2023-09-19T02:16:07;8.23;;;5.72;;
35777;SDS011;21899;42.662;23.316;2023-09-19T02:18:34;9.63;;;6.80;;
35777;SDS011;21899;42.662;23.316;2023-09-19T02:21:03;10.02;;;6.95;;
35777;SDS011;21899;42.662;23.316;2023-09-19T02:23:32;12.27;;;6.57;;
35777;SDS011;21899;42.662;23.316;2023-09-19T02:25:58;9.95;;;7.10;;
35777;SDS011;21899;42.662;23.316;2023-09-19T02:28:28;9.13;;;7.03;;
35777;SDS011;21899;42.662;23.316;2023-09-19T02:31:01;14.00;;;8.00;;
35777;SDS011;21899;42.662;23.316;2023-09-19T02:33:26;14.95;;;8.38;;
35777;SDS011;21899;42.662;23.316;2023-09-19T02:35:56;10.52;;;8.65;;
35777;SDS011;21899;42.662;23.316;2023-09-19T02:38:25;11.97;;;8.33;;
35777;SDS011;21899;42.662;23.316;2023-09-19T02:40:51;11.23;;;7.85;;
35777;SDS011;21899;42.662;23.316;2023-09-19T02:43:17;11.23;;;7.53;;
35777;SDS011;21899;42.662;23.316;2023-09-19T02:45:44;13.02;;;7.93;;
35777;SDS011;21899;42.662;23.316;2023-09-19T02:48:11;11.00;;;8.07;;
35777;SDS011;21899;42.662;23.316;2023-09-19T02:50:37;14.80;;;8.60;;
35777;SDS011;21899;42.662;23.316;2023-09-19T02:53:04;14.05;;;8.98;;
35777;SDS011;21899;42.662;23.316;2023-09-19T02:55:29;13.68;;;8.48;;
35777;SDS011;21899;42.662;23.316;2023-09-19T02:57:55;11.50;;;7.63;;
35777;SDS011;21899;42.662;23.316;2023-09-19T03:00:21;13.73;;;8.68;;
35777;SDS011;21899;42.662;23.316;2023-09-19T03:02:48;12.60;;;8.80;;
35777;SDS011;21899;42.662;23.316;2023-09-19T03:05:18;17.38;;;10.35;;
35777;SDS011;21899;42.662;23.316;2023-09-19T03:07:46;12.45;;;9.18;;
35777;SDS011;21899;42.662;23.316;2023-09-19T03:10:15;14.77;;;8.68;;
35777;SDS011;21899;42.662;23.316;2023-09-19T03:12:42;14.15;;;9.52;;
35777;SDS011;21899;42.662;23.316;2023-09-19T03:15:08;12.13;;;8.88;;
35777;SDS011;21899;42.662;23.316;2023-09-19T03:17:34;18.10;;;9.63;;
35777;SDS011;21899;42.662;23.316;2023-09-19T03:20:00;13.75;;;8.68;;
35777;SDS011;21899;42.662;23.316;2023-09-19T03:22:28;13.80;;;8.20;;
35777;SDS011;21899;42.662;23.316;2023-09-19T03:24:54;11.55;;;8.50;;
35777;SDS011;21899;42.662;23.316;2023-09-19T03:27:19;11.77;;;8.15;;
35777;SDS011;21899;42.662;23.316;2023-09-19T03:29:46;12.18;;;8.63;;
35777;SDS011;21899;42.662;23.316;2023-09-19T03:32:12;12.18;;;7.72;;
35777;SDS011;21899;42.662;23.316;2023-09-19T03:34:37;10.70;;;8.30;;
35777;SDS011;21899;42.662;23.316;2023-09-19T03:37:08;14.55;;;9.48;;
35777;SDS011;21899;42.662;23.316;2023-09-19T03:39:34;13.20;;;8.00;;
35777;SDS011;21899;42.662;23.316;2023-09-19T03:42:00;10.65;;;7.88;;
35777;SDS011;21899;42.662;23.316;2023-09-19T03:44:27;14.18;;;8.40;;
35777;SDS011;21899;42.662;23.316;2023-09-19T03:46:53;10.27;;;7.30;;
35777;SDS011;21899;42.662;23.316;2023-09-19T03:49:20;11.05;;;7.20;;
35777;SDS011;21899;42.662;23.316;2023-09-19T03:51:45;11.32;;;8.13;;
35777;SDS011;21899;42.662;23.316;2023-09-19T03:54:11;11.95;;;8.50;;
35777;SDS011;21899;42.662;23.316;2023-09-19T03:56:37;11.45;;;8.05;;
35777;SDS011;21899;42.662;23.316;2023-09-19T03:59:03;11.65;;;8.25;;
35777;SDS011;21899;42.662;23.316;2023-09-19T04:01:28;11.75;;;7.97;;
35777;SDS011;21899;42.662;23.316;2023-09-19T04:03:56;12.98;;;8.45;;
35777;SDS011;21899;42.662;23.316;2023-09-19T04:06:22;12.02;;;8.30;;
35777;SDS011;21899;42.662;23.316;2023-09-19T04:08:48;12.75;;;8.48;;
35777;SDS011;21899;42.662;23.316;2023-09-19T04:11:13;13.48;;;8.52;;
35777;SDS011;21899;42.662;23.316;2023-09-19T04:13:39;15.32;;;8.85;;
35777;SDS011;21899;42.662;23.316;2023-09-19T04:16:05;12.00;;;8.52;;
35777;SDS011;21899;42.662;23.316;2023-09-19T04:18:32;17.10;;;9.95;;
35777;SDS011;21899;42.662;23.316;2023-09-19T04:21:02;11.75;;;8.93;;
35777;SDS011;21899;42.662;23.316;2023-09-19T04:23:29;13.23;;;9.40;;
35777;SDS011;21899;42.662;23.316;2023-09-19T04:25:55;16.85;;;9.65;;
35777;SDS011;21899;42.662;23.316;2023-09-19T04:28:20;12.27;;;8.88;;
35777;SDS011;21899;42.662;23.316;2023-09-19T04:30:46;14.35;;;8.80;;
35777;SDS011;21899;42.662;23.316;2023-09-19T04:33:11;13.80;;;8.85;;
35777;SDS011;21899;42.662;23.316;2023-09-19T04:35:39;14.68;;;9.55;;
35777;SDS011;21899;42.662;23.316;2023-09-19T04:38:07;12.63;;;8.57;;
35777;SDS011;21899;42.662;23.316;2023-09-19T04:40:33;15.60;;;8.70;;
35777;SDS011;21899;42.662;23.316;2023-09-19T04:42:59;19.33;;;9.85;;
35777;SDS011;21899;42.662;23.316;2023-09-19T04:45:25;12.60;;;8.10;;
35777;SDS011;21899;42.662;23.316;2023-09-19T04:47:52;15.73;;;9.40;;
35777;SDS011;21899;42.662;23.316;2023-09-19T04:50:18;15.55;;;8.52;;
35777;SDS011;21899;42.662;23.316;2023-09-19T04:52:44;16.02;;;8.27;;
35777;SDS011;21899;42.662;23.316;2023-09-19T04:55:13;20.50;;;9.05;;
35777;SDS011;21899;42.662;23.316;2023-09-19T04:57:45;22.77;;;8.95;;
35777;SDS011;21899;42.662;23.316;2023-09-19T05:00:16;12.23;;;7.93;;
35777;SDS011;21899;42.662;23.316;2023-09-19T05:02:45;15.88;;;10.30;;
35777;SDS011;21899;42.662;23.316;2023-09-19T05:05:11;16.00;;;9.07;;
35777;SDS011;21899;42.662;23.316;2023-09-19T05:07:41;17.23;;;9.45;;
35777;SDS011;21899;42.662;23.316;2023-09-19T05:10:07;16.48;;;9.00;;
35777;SDS011;21899;42.662;23.316;2023-09-19T05:12:36;15.63;;;8.45;;
35777;SDS011;21899;42.662;23.316;2023-09-19T05:15:05;24.23;;;9.40;;
35777;SDS011;21899;42.662;23.316;2023-09-19T05:17:34;20.95;;;8.15;;
35777;SDS011;21899;42.662;23.316;2023-09-19T05:20:01;13.88;;;8.05;;
35777;SDS011;21899;42.662;23.316;2023-09-19T05:22:41;14.45;;;9.25;;
35777;SDS011;21899;42.662;23.316;2023-09-19T05:25:08;17.45;;;8.43;;
35777;SDS011;21899;42.662;23.316;2023-09-19T05:27:34;12.93;;;8.68;;
35777;SDS011;21899;42.662;23.316;2023-09-19T05:29:59;12.73;;;7.22;;
35777;SDS011;21899;42.662;23.316;2023-09-19T05:32:25;11.27;;;7.20;;
35777;SDS011;21899;42.662;23.316;2023-09-19T05:34:50;14.65;;;7.20;;
35777;SDS011;21899;42.662;23.316;2023-09-19T05:37:21;13.20;;;7.50;;
35777;SDS011;21899;42.662;23.316;2023-09-19T05:39:48;13.63;;;8.10;;
35777;SDS011;21899;42.662;23.316;2023-09-19T05:42:14;12.50;;;7.15;;
35777;SDS011;21899;42.662;23.316;2023-09-19T05:44:39;14.93;;;7.47;;
35777;SDS011;21899;42.662;23.316;2023-09-19T05:47:05;12.73;;;6.55;;
35777;SDS011;21899;42.662;23.316;2023-09-19T05:49:34;11.07;;;7.32;;
35777;SDS011;21899;42.662;23.316;2023-09-19T05:52:06;11.82;;;7.47;;
35777;SDS011;21899;42.662;23.316;2023-09-19T05:54:31;12.52;;;7.25;;
35777;SDS011;21899;42.662;23.316;2023-09-19T05:56:58;13.23;;;7.07;;
35777;SDS011;21899;42.662;23.316;2023-09-19T05:59:23;13.88;;;6.88;;
35777;SDS011;21899;42.662;23.316;2023-09-19T06:01:49;16.52;;;8.07;;
35777;SDS011;21899;42.662;23.316;2023-09-19T06:04:14;13.35;;;7.22;;
35777;SDS011;21899;42.662;23.316;2023-09-19T06:06:40;11.75;;;6.40;;
35777;SDS011;21899;42.662;23.316;2023-09-19T06:09:05;8.07;;;5.57;;
35777;SDS011;21899;42.662;23.316;2023-09-19T06:11:33;13.52;;;6.47;;
35777;SDS011;21899;42.662;23.316;2023-09-19T06:14:00;9.30;;;5.57;;
35777;SDS011;21899;42.662;23.316;2023-09-19T06:16:27;12.05;;;5.40;;
35777;SDS011;21899;42.662;23.316;2023-09-19T06:18:54;12.13;;;6.25;;
35777;SDS011;21899;42.662;23.316;2023-09-19T06:21:21;13.27;;;5.93;;
35777;SDS011;21899;42.662;23.316;2023-09-19T06:23:47;9.60;;;6.05;;
35777;SDS011;21899;42.662;23.316;2023-09-19T06:26:12;9.65;;;6.03;;
35777;SDS011;21899;42.662;23.316;2023-09-19T06:28:38;9.00;;;5.85;;
35777;SDS011;21899;42.662;23.316;2023-09-19T06:31:04;10.85;;;7.15;;
35777;SDS011;21899;42.662;23.316;2023-09-19T06:33:34;11.60;;;8.23;;
35777;SDS011;21899;42.662;23.316;2023-09-19T06:36:06;12.52;;;7.75;;
35777;SDS011;21899;42.662;23.316;2023-09-19T06:38:32;13.88;;;6.68;;
35777;SDS011;21899;42.662;23.316;2023-09-19T06:41:00;9.80;;;5.63;;
35777;SDS011;21899;42.662;23.316;2023-09-19T06:43:29;10.93;;;5.28;;
35777;SDS011;21899;42.662;23.316;2023-09-19T06:45:55;11.43;;;5.22;;
35777;SDS011;21899;42.662;23.316;2023-09-19T06:48:22;9.73;;;5.53;;
35777;SDS011;21899;42.662;23.316;2023-09-19T06:50:50;8.05;;;4.93;;
35777;SDS011;21899;42.662;23.316;2023-09-19T06:53:16;10.48;;;5.05;;
35777;SDS011;21899;42.662;23.316;2023-09-19T06:55:42;7.60;;;5.03;;
35777;SDS011;21899;42.662;23.316;2023-09-19T06:58:09;13.77;;;5.40;;
35777;SDS011;21899;42.662;23.316;2023-09-19T07:00:35;11.07;;;5.78;;
35777;SDS011;21899;42.662;23.316;2023-09-19T07:03:03;9.60;;;5.25;;
35777;SDS011;21899;42.662;23.316;2023-09-19T07:05:33;11.25;;;5.47;;
35777;SDS011;21899;42.662;23.316;2023-09-19T07:08:02;9.73;;;4.78;;
35777;SDS011;21899;42.662;23.316;2023-09-19T07:10:28;11.02;;;4.43;;
35777;SDS011;21899;42.662;23.316;2023-09-19T07:12:58;11.50;;;5.40;;
35777;SDS011;21899;42.662;23.316;2023-09-19T07:15:24;15.55;;;5.57;;
35777;SDS011;21899;42.662;23.316;2023-09-19T07:17:53;12.63;;;5.35;;
35777;SDS011;21899;42.662;23.316;2023-09-19T07:20:21;10.45;;;5.30;;
35777;SDS011;21899;42.662;23.316;2023-09-19T07:22:48;11.65;;;5.60;;
35777;SDS011;21899;42.662;23.316;2023-09-19T07:25:15;13.88;;;5.35;;
35777;SDS011;21899;42.662;23.316;2023-09-19T07:27:41;8.85;;;5.68;;
35777;SDS011;21899;42.662;23.316;2023-09-19T07:30:07;9.02;;;5.45;;
35777;SDS011;21899;42.662;23.316;2023-09-19T07:32:34;8.07;;;5.20;;
35777;SDS011;21899;42.662;23.316;2023-09-19T07:35:03;7.53;;;4.97;;
35777;SDS011;21899;42.662;23.316;2023-09-19T07:37:29;8.35;;;4.90;;
35777;SDS011;21899;42.662;23.316;2023-09-19T07:39:58;11.52;;;5.43;;
35777;SDS011;21899;42.662;23.316;2023-09-19T07:42:24;9.75;;;5.35;;
35777;SDS011;21899;42.662;23.316;2023-09-19T07:44:51;10.07;;;5.50;;
35777;SDS011;21899;42.662;23.316;2023-09-19T07:47:16;9.25;;;5.35;;
35777;SDS011;21899;42.662;23.316;2023-09-19T07:49:42;9.38;;;5.30;;
35777;SDS011;21899;42.662;23.316;2023-09-19T07:52:08;7.35;;;4.85;;
35777;SDS011;21899;42.662;23.316;2023-09-19T07:54:34;10.43;;;5.18;;
35777;SDS011;21899;42.662;23.316;2023-09-19T07:57:03;8.35;;;5.40;;
35777;SDS011;21899;42.662;23.316;2023-09-19T07:59:29;16.17;;;9.57;;
35777;SDS011;21899;42.662;23.316;2023-09-19T08:01:55;8.85;;;5.93;;
35777;SDS011;21899;42.662;23.316;2023-09-19T08:04:20;9.48;;;5.68;;
35777;SDS011;21899;42.662;23.316;2023-09-19T08:06:45;7.78;;;5.38;;
35777;SDS011;21899;42.662;23.316;2023-09-19T08:09:11;9.00;;;5.90;;
35777;SDS011;21899;42.662;23.316;2023-09-19T08:11:39;13.65;;;5.63;;
35777;SDS011;21899;42.662;23.316;2023-09-19T08:14:04;8.43;;;5.00;;
35777;SDS011;21899;42.662;23.316;2023-09-19T08:16:32;13.77;;;5.97;;
35777;SDS011;21899;42.662;23.316;2023-09-19T08:18:58;8.52;;;6.00;;
35777;SDS011;21899;42.662;23.316;2023-09-19T08:21:23;11.73;;;5.30;;
35777;SDS011;21899;42.662;23.316;2023-09-19T08:23:49;11.45;;;5.50;;
35777;SDS011;21899;42.662;23.316;2023-09-19T08:26:15;9.75;;;5.63;;
35777;SDS011;21899;42.662;23.316;2023-09-19T08:28:40;12.90;;;6.45;;
35777;SDS011;21899;42.662;23.316;2023-09-19T08:31:07;13.77;;;5.97;;
35777;SDS011;21899;42.662;23.316;2023-09-19T08:33:34;12.80;;;5.47;;
35777;SDS011;21899;42.662;23.316;2023-09-19T08:36:00;8.38;;;5.68;;
35777;SDS011;21899;42.662;23.316;2023-09-19T08:38:30;8.10;;;5.55;;
35777;SDS011;21899;42.662;23.316;2023-09-19T08:40:58;11.68;;;5.45;;
35777;SDS011;21899;42.662;23.316;2023-09-19T08:43:30;11.55;;;6.35;;
35777;SDS011;21899;42.662;23.316;2023-09-19T08:48:31;15.27;;;6.22;;
35777;SDS011;21899;42.662;23.316;2023-09-19T08:51:03;15.60;;;6.38;;
35777;SDS011;21899;42.662;23.316;2023-09-19T08:56:19;10.88;;;6.97;;
35777;SDS011;21899;42.662;23.316;2023-09-19T08:58:53;11.45;;;5.25;;
35777;SDS011;21899;42.662;23.316;2023-09-19T09:01:23;11.68;;;6.45;;
35777;SDS011;21899;42.662;23.316;2023-09-19T09:03:52;9.40;;;6.63;;
35777;SDS011;21899;42.662;23.316;2023-09-19T09:06:19;10.23;;;6.30;;
35777;SDS011;21899;42.662;23.316;2023-09-19T09:08:46;9.90;;;6.10;;
35777;SDS011;21899;42.662;23.316;2023-09-19T09:11:12;14.02;;;6.50;;
35777;SDS011;21899;42.662;23.316;2023-09-19T09:13:40;9.35;;;6.15;;
35777;SDS011;21899;42.662;23.316;2023-09-19T09:16:06;15.43;;;8.23;;
35777;SDS011;21899;42.662;23.316;2023-09-19T09:18:32;10.25;;;5.93;;
35777;SDS011;21899;42.662;23.316;2023-09-19T09:20:58;12.95;;;6.60;;
35777;SDS011;21899;42.662;23.316;2023-09-19T09:23:23;15.82;;;5.93;;
35777;SDS011;21899;42.662;23.316;2023-09-19T09:25:54;13.65;;;6.57;;
35777;SDS011;21899;42.662;23.316;2023-09-19T09:28:25;21.85;;;6.45;;
35777;SDS011;21899;42.662;23.316;2023-09-19T09:30:52;13.65;;;6.60;;
35777;SDS011;21899;42.662;23.316;2023-09-19T09:33:17;20.00;;;11.40;;
35777;SDS011;21899;42.662;23.316;2023-09-19T09:35:56;13.35;;;6.28;;
35777;SDS011;21899;42.662;23.316;2023-09-19T09:38:44;10.38;;;6.45;;
35777;SDS011;21899;42.662;23.316;2023-09-19T09:41:11;10.43;;;6.60;;
35777;SDS011;21899;42.662;23.316;2023-09-19T09:43:42;11.45;;;6.20;;
35777;SDS011;21899;42.662;23.316;2023-09-19T09:46:13;13.40;;;6.90;;
35777;SDS011;21899;42.662;23.316;2023-09-19T09:48:47;14.27;;;6.40;;
35777;SDS011;21899;42.662;23.316;2023-09-19T09:51:42;14.07;;;6.68;;
35777;SDS011;21899;42.662;23.316;2023-09-19T09:54:23;8.77;;;5.78;;
35777;SDS011;21899;42.662;23.316;2023-09-19T09:56:52;11.63;;;6.50;;
35777;SDS011;21899;42.662;23.316;2023-09-19T10:02:25;14.73;;;6.77;;
35777;SDS011;21899;42.662;23.316;2023-09-19T10:04:57;15.00;;;6.55;;
35777;SDS011;21899;42.662;23.316;2023-09-19T10:07:30;13.30;;;6.93;;
35777;SDS011;21899;42.662;23.316;2023-09-19T10:10:29;9.60;;;5.95;;
35777;SDS011;21899;42.662;23.316;2023-09-19T10:13:05;10.07;;;6.03;;
35777;SDS011;21899;42.662;23.316;2023-09-19T10:15:33;9.07;;;5.72;;
35777;SDS011;21899;42.662;23.316;2023-09-19T10:18:04;9.70;;;5.32;;
35777;SDS011;21899;42.662;23.316;2023-09-19T10:20:30;13.95;;;5.85;;
35777;SDS011;21899;42.662;23.316;2023-09-19T10:22:55;10.50;;;5.63;;
35777;SDS011;21899;42.662;23.316;2023-09-19T10:25:26;8.63;;;5.85;;
35777;SDS011;21899;42.662;23.316;2023-09-19T10:28:01;12.05;;;6.00;;
35777;SDS011;21899;42.662;23.316;2023-09-19T10:30:31;8.63;;;5.10;;
35777;SDS011;21899;42.662;23.316;2023-09-19T10:33:03;9.75;;;6.10;;
35777;SDS011;21899;42.662;23.316;2023-09-19T10:35:30;8.90;;;5.47;;
35777;SDS011;21899;42.662;23.316;2023-09-19T10:38:00;11.32;;;5.78;;
35777;SDS011;21899;42.662;23.316;2023-09-19T10:40:27;9.43;;;5.72;;
35777;SDS011;21899;42.662;23.316;2023-09-19T10:43:03;9.73;;;5.80;;
35777;SDS011;21899;42.662;23.316;2023-09-19T10:45:33;8.38;;;5.47;;
35777;SDS011;21899;42.662;23.316;2023-09-19T10:48:00;11.18;;;5.95;;
35777;SDS011;21899;42.662;23.316;2023-09-19T10:50:48;9.40;;;5.07;;
35777;SDS011;21899;42.662;23.316;2023-09-19T10:53:16;7.53;;;5.47;;
35777;SDS011;21899;42.662;23.316;2023-09-19T10:55:51;12.25;;;6.22;;
35777;SDS011;21899;42.662;23.316;2023-09-19T10:58:26;8.73;;;5.63;;
35777;SDS011;21899;42.662;23.316;2023-09-19T11:00:54;11.35;;;6.57;;
35777;SDS011;21899;42.662;23.316;2023-09-19T11:03:22;13.10;;;6.55;;
35777;SDS011;21899;42.662;23.316;2023-09-19T11:06:02;13.95;;;5.95;;
35777;SDS011;21899;42.662;23.316;2023-09-19T11:11:47;12.93;;;5.90;;
35777;SDS011;21899;42.662;23.316;2023-09-19T11:31:41;10.70;;;5.72;;
35777;SDS011;21899;42.662;23.316;2023-09-19T11:33:46;10.45;;;5.43;;
35777;SDS011;21899;42.662;23.316;2023-09-19T11:36:17;9.45;;;5.20;;
35777;SDS011;21899;42.662;23.316;2023-09-19T11:43:46;9.05;;;5.32;;
35777;SDS011;21899;42.662;23.316;2023-09-19T11:46:16;10.68;;;6.30;;
35777;SDS011;21899;42.662;23.316;2023-09-19T11:48:47;8.02;;;5.20;;
35777;SDS011;21899;42.662;23.316;2023-09-19T11:51:23;11.05;;;5.60;;
35777;SDS011;21899;42.662;23.316;2023-09-19T11:53:53;11.05;;;5.82;;
35777;SDS011;21899;42.662;23.316;2023-09-19T11:56:20;14.38;;;6.45;;
35777;SDS011;21899;42.662;23.316;2023-09-19T11:58:49;8.30;;;5.50;;
35777;SDS011;21899;42.662;23.316;2023-09-19T12:01:21;10.75;;;5.75;;
35777;SDS011;21899;42.662;23.316;2023-09-19T12:03:54;8.40;;;6.60;;
35777;SDS011;21899;42.662;23.316;2023-09-19T12:06:24;14.23;;;6.68;;
35777;SDS011;21899;42.662;23.316;2023-09-19T12:08:51;8.63;;;6.10;;
35777;SDS011;21899;42.662;23.316;2023-09-19T12:11:19;8.27;;;5.18;;
35777;SDS011;21899;42.662;23.316;2023-09-19T12:13:48;8.25;;;5.43;;
35777;SDS011;21899;42.662;23.316;2023-09-19T12:16:17;8.23;;;5.07;;
35777;SDS011;21899;42.662;23.316;2023-09-19T12:18:47;12.68;;;5.82;;
35777;SDS011;21899;42.662;23.316;2023-09-19T12:26:42;10.25;;;5.90;;
35777;SDS011;21899;42.662;23.316;2023-09-19T12:31:55;8.43;;;6.53;;
35777;SDS011;21899;42.662;23.316;2023-09-19T12:34:32;9.85;;;5.53;;
35777;SDS011;21899;42.662;23.316;2023-09-19T12:37:04;8.43;;;5.50;;
35777;SDS011;21899;42.662;23.316;2023-09-19T12:39:36;13.68;;;6.32;;
35777;SDS011;21899;42.662;23.316;2023-09-19T12:42:07;9.48;;;6.10;;
35777;SDS011;21899;42.662;23.316;2023-09-19T12:44:34;10.27;;;5.28;;
35777;SDS011;21899;42.662;23.316;2023-09-19T12:47:24;8.52;;;5.38;;
35777;SDS011;21899;42.662;23.316;2023-09-19T12:52:51;9.05;;;5.40;;
35777;SDS011;21899;42.662;23.316;2023-09-19T13:00:31;12.77;;;6.03;;
35777;SDS011;21899;42.662;23.316;2023-09-19T13:06:01;9.48;;;4.97;;
35777;SDS011;21899;42.662;23.316;2023-09-19T13:11:00;9.13;;;5.45;;
35777;SDS011;21899;42.662;23.316;2023-09-19T13:13:42;9.57;;;5.15;;
35777;SDS011;21899;42.662;23.316;2023-09-19T13:25:09;8.95;;;5.60;;
35777;SDS011;21899;42.662;23.316;2023-09-19T13:27:51;9.98;;;5.00;;
35777;SDS011;21899;42.662;23.316;2023-09-19T13:30:19;7.70;;;5.60;;
35777;SDS011;21899;42.662;23.316;2023-09-19T13:32:45;13.68;;;5.10;;
35777;SDS011;21899;42.662;23.316;2023-09-19T13:35:12;9.77;;;5.50;;
35777;SDS011;21899;42.662;23.316;2023-09-19T13:37:39;11.18;;;5.25;;
35777;SDS011;21899;42.662;23.316;2023-09-19T13:40:12;9.23;;;5.38;;
35777;SDS011;21899;42.662;23.316;2023-09-19T13:42:40;9.77;;;5.07;;
35777;SDS011;21899;42.662;23.316;2023-09-19T13:45:06;12.43;;;4.93;;
35777;SDS011;21899;42.662;23.316;2023-09-19T13:47:32;10.90;;;5.55;;
35777;SDS011;21899;42.662;23.316;2023-09-19T13:49:59;10.02;;;5.20;;
35777;SDS011;21899;42.662;23.316;2023-09-19T13:52:25;7.90;;;4.80;;
35777;SDS011;21899;42.662;23.316;2023-09-19T13:54:53;9.52;;;5.20;;
35777;SDS011;21899;42.662;23.316;2023-09-19T13:57:21;10.60;;;5.00;;
35777;SDS011;21899;42.662;23.316;2023-09-19T13:59:47;7.93;;;5.68;;
35777;SDS011;21899;42.662;23.316;2023-09-19T14:02:13;7.68;;;5.18;;
35777;SDS011;21899;42.662;23.316;2023-09-19T14:04:39;10.10;;;5.38;;
35777;SDS011;21899;42.662;23.316;2023-09-19T14:07:05;11.20;;;5.93;;
35777;SDS011;21899;42.662;23.316;2023-09-19T14:09:32;7.97;;;5.78;;
35777;SDS011;21899;42.662;23.316;2023-09-19T14:11:58;10.15;;;5.20;;
35777;SDS011;21899;42.662;23.316;2023-09-19T14:14:24;8.82;;;5.53;;
35777;SDS011;21899;42.662;23.316;2023-09-19T14:16:50;8.77;;;5.63;;
35777;SDS011;21899;42.662;23.316;2023-09-19T14:19:17;11.98;;;5.82;;
35777;SDS011;21899;42.662;23.316;2023-09-19T14:21:42;10.50;;;6.32;;
35777;SDS011;21899;42.662;23.316;2023-09-19T14:24:08;10.85;;;5.35;;
35777;SDS011;21899;42.662;23.316;2023-09-19T14:26:34;9.10;;;6.03;;
35777;SDS011;21899;42.662;23.316;2023-09-19T14:29:00;8.57;;;5.50;;
35777;SDS011;21899;42.662;23.316;2023-09-19T14:31:26;7.30;;;5.20;;
35777;SDS011;21899;42.662;23.316;2023-09-19T14:33:53;8.52;;;5.57;;
35777;SDS011;21899;42.662;23.316;2023-09-19T14:36:19;7.95;;;5.65;;
35777;SDS011;21899;42.662;23.316;2023-09-19T14:38:46;10.13;;;5.50;;
35777;SDS011;21899;42.662;23.316;2023-09-19T14:41:12;11.95;;;6.82;;
35777;SDS011;21899;42.662;23.316;2023-09-19T14:43:38;9.02;;;6.22;;
35777;SDS011;21899;42.662;23.316;2023-09-19T14:46:07;10.02;;;5.63;;
35777;SDS011;21899;42.662;23.316;2023-09-19T14:48:32;9.13;;;6.43;;
35777;SDS011;21899;42.662;23.316;2023-09-19T14:51:02;8.50;;;5.88;;
35777;SDS011;21899;42.662;23.316;2023-09-19T14:53:29;18.80;;;14.20;;
35777;SDS011;21899;42.662;23.316;2023-09-19T14:55:54;20.95;;;14.10;;
35777;SDS011;21899;42.662;23.316;2023-09-19T14:58:21;23.90;;;15.45;;
35777;SDS011;21899;42.662;23.316;2023-09-19T15:00:46;17.02;;;11.15;;
35777;SDS011;21899;42.662;23.316;2023-09-19T15:03:12;14.52;;;9.05;;
35777;SDS011;21899;42.662;23.316;2023-09-19T15:05:38;9.57;;;6.72;;
35777;SDS011;21899;42.662;23.316;2023-09-19T15:08:04;9.77;;;7.53;;
35777;SDS011;21899;42.662;23.316;2023-09-19T15:10:30;12.85;;;7.50;;
35777;SDS011;21899;42.662;23.316;2023-09-19T15:12:56;8.65;;;5.70;;
35777;SDS011;21899;42.662;23.316;2023-09-19T15:15:22;11.00;;;5.68;;
35777;SDS011;21899;42.662;23.316;2023-09-19T15:17:47;9.40;;;5.97;;
35777;SDS011;21899;42.662;23.316;2023-09-19T15:20:14;10.63;;;6.22;;
35777;SDS011;21899;42.662;23.316;2023-09-19T15:22:40;10.90;;;8.27;;
35777;SDS011;21899;42.662;23.316;2023-09-19T15:25:06;11.20;;;7.90;;
35777;SDS011;21899;42.662;23.316;2023-09-19T15:27:32;14.63;;;7.25;;
35777;SDS011;21899;42.662;23.316;2023-09-19T15:30:01;10.50;;;7.20;;
35777;SDS011;21899;42.662;23.316;2023-09-19T15:32:27;12.15;;;7.47;;
35777;SDS011;21899;42.662;23.316;2023-09-19T15:34:53;15.50;;;7.57;;
35777;SDS011;21899;42.662;23.316;2023-09-19T15:37:18;14.27;;;6.80;;
35777;SDS011;21899;42.662;23.316;2023-09-19T15:39:45;16.08;;;8.95;;
35777;SDS011;21899;42.662;23.316;2023-09-19T15:42:11;19.25;;;8.27;;
35777;SDS011;21899;42.662;23.316;2023-09-19T15:44:37;13.02;;;7.55;;
35777;SDS011;21899;42.662;23.316;2023-09-19T15:47:03;11.90;;;7.20;;
35777;SDS011;21899;42.662;23.316;2023-09-19T15:49:29;14.35;;;7.05;;
35777;SDS011;21899;42.662;23.316;2023-09-19T15:51:54;17.80;;;7.35;;
35777;SDS011;21899;42.662;23.316;2023-09-19T15:54:20;15.43;;;7.40;;